Time;durP1;ratioP1;P1;durP2;ratioP2;P2;SDS_P1;SDS_P2;PMS_P1;PMS_P2;Temp;Humidity;BMP_temperature;BMP_pressure;BME280_temperature;BME280_humidity;BME280_pressure;Samples;Min_cycle;Max_cycle;Signal;HPM_P1;HPM_P2
2022/02/16 00:01:13;;;;;;;21.10;13.10;;;;;;;4.16;66.73;96429.78;105866;1274;2107774;-84
2022/02/16 00:03:42;;;;;;;18.10;11.10;;;;;;;4.17;66.61;96434.36;107347;1273;138710;-83
2022/02/16 00:06:10;;;;;;;17.70;11.80;;;;;;;4.20;66.61;96434.28;107257;1275;126592;-83
2022/02/16 00:08:38;;;;;;;19.10;11.40;;;;;;;4.18;66.33;96438.05;106119;1273;1875257;-83
2022/02/16 00:11:07;;;;;;;20.60;11.00;;;;;;;4.15;66.36;96435.23;107292;1273;130244;-83
2022/02/16 00:13:35;;;;;;;19.60;12.00;;;;;;;4.16;66.24;96429.52;107322;1274;117625;-84
2022/02/16 00:16:08;;;;;;;20.10;10.80;;;;;;;4.11;66.16;96429.88;107418;1274;104468;-83
2022/02/16 00:18:37;;;;;;;23.30;12.10;;;;;;;4.04;66.23;96433.86;107291;1274;155497;-84
2022/02/16 00:21:06;;;;;;;22.10;12.30;;;;;;;4.02;66.31;96437.71;107154;1274;176298;-83
2022/02/16 00:23:34;;;;;;;22.40;12.30;;;;;;;3.99;66.29;96438.00;107263;1274;181252;-83
2022/02/16 00:26:03;;;;;;;25.10;14.00;;;;;;;3.93;66.35;96436.64;107272;1274;157686;-83
2022/02/16 00:28:31;;;;;;;28.90;14.70;;;;;;;3.90;66.35;96430.36;107210;1274;206090;-83
2022/02/16 00:30:59;;;;;;;23.10;12.60;;;;;;;3.87;66.38;96425.13;107243;1273;124965;-83
2022/02/16 00:33:28;;;;;;;22.50;12.40;;;;;;;3.83;66.47;96422.30;107417;1274;128261;-83
2022/02/16 00:35:56;;;;;;;21.20;12.70;;;;;;;3.80;66.60;96421.40;107355;1274;134189;-83
2022/02/16 00:38:25;;;;;;;23.00;12.90;;;;;;;3.76;66.60;96416.40;107519;1274;107384;-83
2022/02/16 00:40:53;;;;;;;20.70;11.10;;;;;;;3.72;66.74;96413.46;107506;1274;115261;-83
2022/02/16 00:43:21;;;;;;;20.20;10.90;;;;;;;3.67;66.97;96411.50;107503;1274;117341;-83
2022/02/16 00:45:50;;;;;;;21.80;11.50;;;;;;;3.63;66.90;96415.36;107249;1274;112583;-83
2022/02/16 00:48:18;;;;;;;20.70;12.00;;;;;;;3.61;67.14;96415.90;107327;1274;114439;-83
2022/02/16 00:50:46;;;;;;;20.60;11.00;;;;;;;3.61;67.16;96419.77;107310;1273;124494;-83
2022/02/16 00:53:15;;;;;;;18.10;10.80;;;;;;;3.61;67.26;96417.06;107407;1274;146080;-83
2022/02/16 00:55:43;;;;;;;20.40;12.10;;;;;;;3.62;67.28;96411.36;107416;1274;129535;-84
2022/02/16 00:58:11;;;;;;;17.20;10.50;;;;;;;3.63;67.37;96409.23;107347;1274;101230;-83
2022/02/16 01:00:40;;;;;;;19.70;12.00;;;;;;;3.65;67.35;96408.52;106563;1274;1156280;-83
2022/02/16 01:03:08;;;;;;;20.60;11.80;;;;;;;3.65;67.25;96405.22;107359;1274;140721;-83
2022/02/16 01:05:37;;;;;;;18.90;11.10;;;;;;;3.67;67.42;96411.09;107251;1274;135056;-83
2022/02/16 01:08:08;;;;;;;16.00;10.20;;;;;;;3.67;67.38;96411.77;107279;1275;124778;-84
2022/02/16 01:10:37;;;;;;;18.90;10.70;;;;;;;3.67;67.43;96404.47;105994;1273;1957671;-83
2022/02/16 01:13:06;;;;;;;18.70;11.10;;;;;;;3.68;67.53;96402.23;107294;1274;120797;-83
2022/02/16 01:15:34;;;;;;;17.00;10.80;;;;;;;3.67;67.54;96403.11;107350;1273;133067;-83
2022/02/16 01:18:03;;;;;;;20.50;11.20;;;;;;;3.66;67.65;96400.27;107322;1274;150394;-83
2022/02/16 01:20:31;;;;;;;23.20;11.70;;;;;;;3.62;67.57;96398.20;107363;1274;107923;-83
2022/02/16 01:23:00;;;;;;;20.00;12.30;;;;;;;3.59;67.72;96394.17;107289;1274;119363;-83
2022/02/16 01:25:28;;;;;;;24.70;12.60;;;;;;;3.52;67.84;96394.34;107316;1274;129400;-83
2022/02/16 01:27:57;;;;;;;20.10;11.50;;;;;;;3.49;67.85;96392.23;107352;1275;136869;-82
2022/02/16 01:30:25;;;;;;;21.00;12.10;;;;;;;3.49;68.04;96387.41;107264;1275;163310;-81
2022/02/16 01:32:53;;;;;;;18.70;11.00;;;;;;;3.49;68.04;96383.48;107449;1274;130347;-83
2022/02/16 01:35:22;;;;;;;19.70;11.60;;;;;;;3.50;68.30;96383.38;107425;1274;135977;-83
2022/02/16 01:37:50;;;;;;;28.40;14.50;;;;;;;3.46;68.58;96384.28;107579;1273;93664;-84
2022/02/16 01:40:18;;;;;;;29.60;15.30;;;;;;;3.42;69.10;96383.02;107375;1274;109069;-83
2022/02/16 01:42:48;;;;;;;25.00;14.50;;;;;;;3.36;69.43;96378.30;107467;1273;93692;-84
2022/02/16 01:45:23;;;;;;;26.00;13.10;;;;;;;3.32;69.78;96375.88;107383;1274;135518;-83
2022/02/16 01:47:51;;;;;;;23.20;12.60;;;;;;;3.29;70.05;96370.18;107545;1274;80493;-83
2022/02/16 01:50:19;;;;;;;27.40;14.40;;;;;;;3.24;70.19;96369.05;107414;1273;114920;-83
2022/02/16 01:52:48;;;;;;;20.90;12.80;;;;;;;3.20;70.40;96366.88;107283;1274;139714;-83
2022/02/16 01:55:17;;;;;;;24.50;13.10;;;;;;;3.15;70.48;96361.52;107311;1275;131662;-84
2022/02/16 01:57:46;;;;;;;20.80;12.40;;;;;;;3.11;70.99;96363.88;107179;1275;129409;-83
2022/02/16 02:00:15;;;;;;;20.90;12.10;;;;;;;3.11;71.23;96362.23;107167;1274;165537;-83
2022/02/16 02:02:43;;;;;;;20.80;12.30;;;;;;;3.11;71.68;96359.67;107399;1274;124490;-83
2022/02/16 02:05:12;;;;;;;19.00;12.10;;;;;;;3.08;71.75;96356.15;107294;1274;113421;-83
2022/02/16 02:07:40;;;;;;;23.60;13.80;;;;;;;3.03;72.05;96352.88;107377;1273;122162;-83
2022/02/16 02:10:10;;;;;;;22.90;13.60;;;;;;;3.02;72.20;96352.08;107087;1274;183679;-83
2022/02/16 02:12:45;;;;;;;24.40;14.50;;;;;;;3.01;72.35;96345.88;107319;1274;118919;-83
2022/02/16 02:15:13;;;;;;;22.40;13.50;;;;;;;3.02;72.61;96340.30;107336;1274;107254;-83
2022/02/16 02:17:41;;;;;;;23.20;13.90;;;;;;;3.02;72.70;96333.33;107218;1274;140277;-83
2022/02/16 02:20:20;;;;;;;22.60;12.90;;;;;;;3.04;72.77;96325.08;107248;1274;172316;-83
2022/02/16 02:22:48;;;;;;;23.30;13.10;;;;;;;3.07;72.70;96325.18;107141;1274;122379;-83
2022/02/16 02:25:18;;;;;;;16.00;10.00;;;;;;;3.17;72.69;96324.77;107246;1272;136354;-84
2022/02/16 02:27:46;;;;;;;18.60;11.80;;;;;;;3.26;72.67;96322.73;107423;1274;117535;-83
2022/02/16 02:30:16;;;;;;;18.10;9.40;;;;;;;3.28;72.38;96320.75;107385;1274;122148;-83
2022/02/16 02:32:48;;;;;;;19.70;10.60;;;;;;;3.27;72.37;96320.22;107309;1274;117500;-83
2022/02/16 02:35:16;;;;;;;21.50;11.70;;;;;;;3.25;72.37;96319.25;107449;1274;119972;-83
2022/02/16 02:37:44;;;;;;;18.30;11.10;;;;;;;3.24;72.28;96318.02;107364;1274;125487;-83
2022/02/16 02:40:13;;;;;;;21.80;13.10;;;;;;;3.23;72.53;96312.40;107117;1274;190931;-83
2022/02/16 02:42:43;;;;;;;19.40;12.10;;;;;;;3.22;72.65;96314.41;107152;1273;138241;-83
2022/02/16 02:45:13;;;;;;;21.80;12.10;;;;;;;3.20;72.62;96310.56;107592;1274;171325;-83
2022/02/16 02:47:41;;;;;;;19.30;13.00;;;;;;;3.19;72.91;96307.77;107583;1274;163063;-83
2022/02/16 02:50:10;;;;;;;19.90;12.30;;;;;;;3.17;72.91;96304.70;106275;1274;1745494;-83
2022/02/16 02:52:42;;;;;;;23.80;12.10;;;;;;;3.15;73.02;96310.34;107574;1273;194138;-83
2022/02/16 02:55:13;;;;;;;18.90;11.20;;;;;;;3.15;73.08;96307.77;106493;1274;1562319;-83
2022/02/16 02:57:41;;;;;;;22.00;12.70;;;;;;;3.15;73.17;96308.04;107694;1274;127759;-83
2022/02/16 03:00:12;;;;;;;19.40;11.10;;;;;;;3.19;73.38;96304.73;107586;1273;197948;-83
2022/02/16 03:02:41;;;;;;;22.10;12.80;;;;;;;3.22;73.25;96302.63;107727;1275;74243;-83
2022/02/16 03:05:11;;;;;;;21.50;12.00;;;;;;;3.23;73.34;96300.13;107755;1274;36230;-83
2022/02/16 03:07:40;;;;;;;20.70;12.20;;;;;;;3.22;73.28;96300.73;107780;1274;47172;-83
2022/02/16 03:10:10;;;;;;;19.60;10.90;;;;;;;3.20;73.38;96292.07;107749;1273;38890;-83
2022/02/16 03:12:38;;;;;;;20.00;11.20;;;;;;;3.20;73.46;96290.59;107748;1274;36884;-83
2022/02/16 03:15:08;;;;;;;22.70;12.20;;;;;;;3.21;73.40;96288.88;107716;1273;50585;-83
2022/02/16 03:17:37;;;;;;;19.40;11.90;;;;;;;3.22;73.49;96282.77;106403;1273;1731025;-83
2022/02/16 03:20:08;;;;;;;22.40;12.00;;;;;;;3.23;73.70;96280.16;107639;1274;196161;-83
2022/02/16 03:22:38;;;;;;;16.70;10.90;;;;;;;3.24;73.68;96279.02;106303;1274;1993637;-83
2022/02/16 03:25:10;;;;;;;24.80;11.30;;;;;;;3.27;73.87;96278.94;106431;1274;1755898;-83
2022/02/16 03:27:39;;;;;;;16.70;10.50;;;;;;;3.33;74.07;96284.39;107257;1274;212789;-83
2022/02/16 03:30:11;;;;;;;14.30;8.00;;;;;;;3.43;74.07;96289.48;106644;1274;1487418;-83
2022/02/16 03:32:40;;;;;;;16.20;8.80;;;;;;;3.52;74.06;96295.12;107633;1274;139467;-83
2022/02/16 03:35:09;;;;;;;19.30;10.80;;;;;;;3.59;74.09;96291.23;107758;1273;117808;-83
2022/02/16 03:37:38;;;;;;;17.00;10.40;;;;;;;3.63;74.10;96286.39;107817;1273;50283;-83
2022/02/16 03:40:11;;;;;;;22.30;11.00;;;;;;;3.67;73.77;96283.10;107575;1275;153852;-83
2022/02/16 03:42:39;;;;;;;21.80;11.50;;;;;;;3.68;73.95;96283.38;107744;1273;85641;-83
2022/02/16 03:45:09;;;;;;;19.70;11.00;;;;;;;3.71;74.07;96277.48;107681;1274;41661;-83
2022/02/16 03:47:37;;;;;;;16.30;10.00;;;;;;;3.75;73.85;96279.69;107666;1274;90816;-83
2022/02/16 03:50:08;;;;;;;20.50;11.50;;;;;;;3.74;73.89;96289.07;107684;1274;36124;-83
2022/02/16 03:52:36;;;;;;;;;;;;;;;3.72;73.88;96292.09;107682;1274;176167;-83
2022/02/16 03:55:05;;;;;;;17.00;10.70;;;;;;;3.71;73.81;96290.23;105811;1274;2115303;-83
2022/02/16 03:57:34;;;;;;;16.50;10.40;;;;;;;3.70;73.67;96293.78;107632;1274;82671;-83
2022/02/16 04:00:05;;;;;;;20.50;11.20;;;;;;;3.69;73.95;96295.41;106202;1274;1974265;-83
2022/02/16 04:02:32;;;;;;;;;;;;;;;3.71;74.13;96301.93;107583;1274;178576;-83
2022/02/16 04:05:00;;;;;;;19.70;11.00;;;;;;;3.72;74.18;96299.38;107589;1275;123509;-82
2022/02/16 04:07:29;;;;;;;17.50;10.60;;;;;;;3.72;74.39;96296.02;107662;1273;114063;-82
2022/02/16 04:09:57;;;;;;;19.00;11.70;;;;;;;3.69;74.32;96290.59;107710;1273;41023;-82
2022/02/16 04:12:26;;;;;;;19.40;11.30;;;;;;;3.65;74.33;96282.80;107525;1273;155734;-80
2022/02/16 04:14:55;;;;;;;17.80;10.70;;;;;;;3.65;74.70;96280.91;107325;1274;142360;-83
2022/02/16 04:17:25;;;;;;;20.10;10.60;;;;;;;3.67;74.53;96277.81;107275;1275;144636;-83
2022/02/16 04:19:53;;;;;;;;;;;;;;;3.68;74.79;96268.23;107380;1274;152862;-83
2022/02/16 04:22:21;;;;;;;18.80;11.90;;;;;;;3.70;74.98;96282.20;107381;1275;121306;-83
2022/02/16 04:24:50;;;;;;;19.80;11.80;;;;;;;3.73;74.92;96282.04;107270;1275;119911;-83
2022/02/16 04:27:18;;;;;;;22.50;12.30;;;;;;;3.78;75.11;96282.09;107218;1275;142472;-83
2022/02/16 04:29:46;;;;;;;23.40;11.70;;;;;;;3.80;75.21;96281.48;107173;1274;137883;-83
2022/02/16 04:32:15;;;;;;;19.80;10.80;;;;;;;3.81;75.16;96283.29;107336;1274;193126;-83
2022/02/16 04:34:43;;;;;;;22.50;12.30;;;;;;;3.78;75.10;96284.66;107570;1274;89135;-83
2022/02/16 04:37:11;;;;;;;21.00;12.20;;;;;;;3.75;75.23;96287.67;107430;1274;94136;-83
2022/02/16 04:39:40;;;;;;;21.80;12.50;;;;;;;3.72;75.30;96288.27;106230;1275;1631362;-83
2022/02/16 04:42:09;;;;;;;16.80;10.50;;;;;;;3.69;75.41;96288.11;107482;1274;93288;-83
2022/02/16 04:44:37;;;;;;;20.00;12.60;;;;;;;3.66;75.63;96285.13;107369;1275;101953;-83
2022/02/16 04:47:06;;;;;;;22.90;13.00;;;;;;;3.61;75.90;96284.52;107402;1275;102686;-83
2022/02/16 04:49:35;;;;;;;19.50;12.60;;;;;;;3.58;76.11;96285.77;107400;1274;133922;-82
2022/02/16 04:52:04;;;;;;;25.00;14.20;;;;;;;3.55;76.21;96289.39;107167;1274;140415;-83
2022/02/16 04:54:32;;;;;;;19.20;10.80;;;;;;;3.53;76.52;96287.48;107301;1274;146218;-83
2022/02/16 04:57:01;;;;;;;21.40;13.10;;;;;;;3.50;76.76;96286.80;106028;1274;1663347;-82
2022/02/16 04:59:29;;;;;;;21.40;13.80;;;;;;;3.49;77.22;96285.11;107332;1274;126159;-82
2022/02/16 05:01:57;;;;;;;19.40;11.50;;;;;;;3.47;77.42;96285.66;107141;1274;170266;-83
2022/02/16 05:04:26;;;;;;;20.20;12.40;;;;;;;3.47;77.46;96288.75;107266;1275;158808;-82
2022/02/16 05:06:54;;;;;;;19.10;11.20;;;;;;;3.48;77.68;96288.34;107433;1275;107586;-83
2022/02/16 05:09:22;;;;;;;20.30;11.40;;;;;;;3.49;77.74;96287.77;107330;1274;207473;-83
2022/02/16 05:11:51;;;;;;;23.20;13.60;;;;;;;3.46;78.14;96289.37;107436;1275;124416;-83
2022/02/16 05:14:19;;;;;;;21.50;12.50;;;;;;;3.43;78.24;96291.27;107249;1274;146966;-83
2022/02/16 05:16:47;;;;;;;26.10;14.00;;;;;;;3.41;78.30;96290.29;107364;1275;122004;-83
2022/02/16 05:19:15;;;;;;;22.90;12.70;;;;;;;3.38;78.53;96287.05;107295;1274;117955;-83
2022/02/16 05:21:44;;;;;;;23.20;13.30;;;;;;;3.35;78.87;96288.45;107295;1274;117141;-83
2022/02/16 05:24:12;;;;;;;20.00;12.60;;;;;;;3.30;79.08;96287.98;107353;1274;124144;-83
2022/02/16 05:26:40;;;;;;;23.20;13.80;;;;;;;3.26;79.21;96286.41;107270;1274;197020;-83
2022/02/16 05:29:09;;;;;;;21.10;13.10;;;;;;;3.22;79.57;96288.59;107283;1275;111788;-83
2022/02/16 05:31:37;;;;;;;24.00;13.70;;;;;;;3.19;79.84;96287.60;107190;1274;150625;-83
2022/02/16 05:34:06;;;;;;;21.20;12.20;;;;;;;3.13;79.94;96287.21;107440;1274;101215;-82
2022/02/16 05:36:34;;;;;;;23.30;13.30;;;;;;;3.08;80.32;96289.47;107381;1275;135814;-83
2022/02/16 05:39:03;;;;;;;20.70;13.50;;;;;;;3.03;80.58;96293.23;107332;1274;147187;-82
2022/02/16 05:41:32;;;;;;;19.20;12.90;;;;;;;3.02;80.80;96291.00;107300;1274;130976;-83
2022/02/16 05:44:00;;;;;;;24.40;14.30;;;;;;;3.02;81.05;96292.69;107299;1274;120117;-82
2022/02/16 05:46:29;;;;;;;24.70;13.60;;;;;;;3.03;81.19;96287.51;107204;1275;144482;-83
2022/02/16 05:48:57;;;;;;;23.70;14.00;;;;;;;3.05;81.40;96289.46;107392;1274;111540;-82
2022/02/16 05:51:26;;;;;;;22.60;14.10;;;;;;;3.07;81.68;96288.09;107512;1274;111374;-82
2022/02/16 05:53:54;;;;;;;26.10;14.70;;;;;;;3.09;81.71;96275.55;107475;1273;110838;-82
2022/02/16 05:56:22;;;;;;;21.80;12.10;;;;;;;3.10;81.94;96275.01;107494;1274;115106;-82
2022/02/16 05:58:50;;;;;;;21.10;13.80;;;;;;;3.11;82.10;96277.65;107305;1273;145766;-82
2022/02/16 06:01:19;;;;;;;22.30;13.00;;;;;;;3.13;82.18;96278.61;107345;1274;106979;-83
2022/02/16 06:03:47;;;;;;;19.70;12.80;;;;;;;3.14;82.40;96278.73;107349;1274;131215;-83
2022/02/16 06:06:18;;;;;;;23.90;13.60;;;;;;;3.17;82.65;96280.03;107265;1273;201634;-82
2022/02/16 06:08:47;;;;;;;20.00;13.00;;;;;;;3.18;82.50;96273.60;107402;1274;128101;-82
2022/02/16 06:11:15;;;;;;;18.30;10.90;;;;;;;3.23;83.09;96270.64;106252;1274;1404064;-82
2022/02/16 06:13:44;;;;;;;21.80;13.20;;;;;;;3.36;83.40;96282.09;107180;1274;131439;-83
2022/02/16 06:16:12;;;;;;;20.80;12.40;;;;;;;3.48;83.18;96281.48;107385;1274;124369;-83
2022/02/16 06:18:41;;;;;;;17.00;11.10;;;;;;;3.52;83.03;96279.39;107329;1274;145118;-83
2022/02/16 06:21:09;;;;;;;25.20;14.20;;;;;;;3.53;82.87;96276.48;107375;1274;111156;-83
2022/02/16 06:23:38;;;;;;;22.70;13.00;;;;;;;3.55;82.66;96277.98;107448;1274;96059;-82
2022/02/16 06:26:09;;;;;;;20.60;13.20;;;;;;;3.56;82.63;96276.10;107338;1274;109501;-82
2022/02/16 06:28:39;;;;;;;23.10;12.80;;;;;;;3.55;82.72;96274.73;107311;1274;131202;-82
2022/02/16 06:31:08;;;;;;;23.10;12.80;;;;;;;3.59;82.90;96269.78;106328;1274;1419417;-82
2022/02/16 06:33:36;;;;;;;21.00;12.90;;;;;;;3.64;82.82;96265.96;107148;1274;170166;-82
2022/02/16 06:36:05;;;;;;;18.80;11.70;;;;;;;3.68;82.74;96262.14;107276;1274;123676;-82
2022/02/16 06:38:36;;;;;;;18.20;12.00;;;;;;;3.72;82.70;96257.22;107308;1274;192703;-82
2022/02/16 06:41:05;;;;;;;19.80;12.30;;;;;;;3.77;82.54;96253.85;107172;1274;144751;-83
2022/02/16 06:43:34;;;;;;;22.70;13.10;;;;;;;3.78;82.46;96253.34;107343;1274;118898;-82
2022/02/16 06:46:02;;;;;;;22.40;13.90;;;;;;;3.79;82.45;96258.45;107200;1274;159427;-82
2022/02/16 06:48:30;;;;;;;18.40;12.20;;;;;;;3.78;82.54;96261.00;106238;1274;1374679;-82
2022/02/16 06:50:59;;;;;;;21.70;13.20;;;;;;;3.78;82.40;96256.12;107390;1274;111774;-82
2022/02/16 06:53:27;;;;;;;24.20;13.10;;;;;;;3.81;82.23;96257.05;107152;1274;163892;-83
2022/02/16 06:55:56;;;;;;;21.20;12.90;;;;;;;3.84;81.96;96255.64;107362;1274;107488;-83
2022/02/16 06:58:24;;;;;;;19.40;13.00;;;;;;;3.90;82.11;96251.77;107359;1274;147843;-83
2022/02/16 07:00:53;;;;;;;19.30;12.20;;;;;;;3.96;82.01;96251.48;107525;1274;139350;-83
2022/02/16 07:03:21;;;;;;;18.80;11.30;;;;;;;4.02;81.92;96247.66;107506;1274;120522;-83
2022/02/16 07:05:50;;;;;;;21.00;12.90;;;;;;;4.10;81.95;96239.20;107263;1274;179232;-83
2022/02/16 07:08:18;;;;;;;29.60;15.30;;;;;;;4.15;81.88;96237.42;107321;1274;120428;-81
2022/02/16 07:10:54;;;;;;;20.70;12.60;;;;;;;4.16;81.66;96239.02;105972;1274;1928300;-83
2022/02/16 07:13:22;;;;;;;22.70;13.30;;;;;;;4.18;81.54;96242.44;107308;1274;164369;-83
2022/02/16 07:15:51;;;;;;;23.20;13.80;;;;;;;4.20;81.30;96238.35;107245;1274;154825;-83
2022/02/16 07:18:20;;;;;;;23.90;14.10;;;;;;;4.20;81.28;96232.59;107331;1274;144597;-83
2022/02/16 07:20:48;;;;;;;20.20;13.00;;;;;;;4.19;81.16;96233.52;107246;1274;105833;-83
2022/02/16 07:23:16;;;;;;;24.10;14.90;;;;;;;4.21;81.22;96228.18;107476;1274;88833;-83
2022/02/16 07:25:45;;;;;;;21.50;13.00;;;;;;;4.21;81.11;96224.35;107151;1274;301996;-83
2022/02/16 07:28:14;;;;;;;29.10;14.60;;;;;;;4.20;80.91;96219.77;107277;1274;177573;-83
2022/02/16 07:30:45;;;;;;;17.60;11.40;;;;;;;4.22;81.06;96217.38;107200;1274;126809;-83
2022/02/16 07:33:14;;;;;;;22.50;13.70;;;;;;;4.22;81.05;96217.08;107426;1274;121746;-83
2022/02/16 07:35:43;;;;;;;20.40;13.00;;;;;;;4.23;80.99;96216.20;107110;1275;123260;-83
2022/02/16 07:38:11;;;;;;;26.60;14.80;;;;;;;4.24;80.98;96214.44;107477;1274;92092;-83
2022/02/16 07:40:40;;;;;;;22.40;13.50;;;;;;;4.28;80.88;96209.54;107312;1274;100726;-83
2022/02/16 07:43:08;;;;;;;22.20;13.60;;;;;;;4.32;80.71;96207.69;107330;1274;133415;-83
2022/02/16 07:45:37;;;;;;;20.50;12.30;;;;;;;4.37;80.71;96208.95;107468;1274;91431;-83
2022/02/16 07:48:07;;;;;;;21.30;13.80;;;;;;;4.43;80.59;96208.42;107379;1274;96250;-83
2022/02/16 07:50:35;;;;;;;22.30;13.20;;;;;;;4.47;80.45;96209.40;107408;1274;105663;-83
2022/02/16 07:53:04;;;;;;;21.50;14.10;;;;;;;4.52;80.39;96212.13;107328;1274;102700;-83
2022/02/16 07:55:33;;;;;;;23.60;13.10;;;;;;;4.56;80.27;96210.64;107373;1275;110585;-83
2022/02/16 07:58:02;;;;;;;23.40;13.70;;;;;;;4.59;80.13;96204.10;107352;1274;93889;-83
2022/02/16 08:00:33;;;;;;;22.70;13.20;;;;;;;4.61;79.94;96202.54;107429;1274;98160;-83
2022/02/16 08:03:02;;;;;;;25.80;14.50;;;;;;;4.61;79.96;96201.74;107232;1274;138881;-82
2022/02/16 08:05:33;;;;;;;19.60;12.40;;;;;;;4.61;79.88;96198.07;107208;1275;180050;-82
2022/02/16 08:08:02;;;;;;;22.80;13.90;;;;;;;4.62;79.66;96191.25;107282;1274;109830;-82
2022/02/16 08:10:31;;;;;;;22.60;13.40;;;;;;;4.65;79.75;96197.33;107260;1274;148680;-82
2022/02/16 08:12:59;;;;;;;25.30;15.00;;;;;;;4.73;79.69;96196.33;107349;1274;112292;-82
2022/02/16 08:15:31;;;;;;;23.20;14.90;;;;;;;4.77;79.58;96191.11;107387;1274;86101;-81
2022/02/16 08:18:00;;;;;;;26.10;16.10;;;;;;;4.81;79.30;96178.60;107236;1274;145747;-82
2022/02/16 08:20:29;;;;;;;25.40;14.60;;;;;;;4.83;79.31;96182.91;107344;1274;102620;-82
2022/02/16 08:22:58;;;;;;;25.10;16.00;;;;;;;4.87;79.30;96182.77;107264;1274;143877;-83
2022/02/16 08:25:26;;;;;;;23.30;14.60;;;;;;;4.86;79.15;96174.00;107555;1274;121401;-80
2022/02/16 08:27:55;;;;;;;23.90;13.50;;;;;;;4.84;79.23;96168.43;107462;1274;116680;-82
2022/02/16 08:30:24;;;;;;;17.60;10.20;;;;;;;4.83;79.20;96170.95;107549;1274;98917;-82
2022/02/16 08:32:53;;;;;;;24.30;15.80;;;;;;;4.85;78.97;96167.75;107500;1274;114521;-82
2022/02/16 08:35:21;;;;;;;21.30;14.10;;;;;;;4.89;79.12;96174.23;107485;1274;102225;-82
2022/02/16 08:37:50;;;;;;;20.60;13.00;;;;;;;4.96;79.27;96169.40;107262;1274;145297;-82
2022/02/16 08:40:18;;;;;;;21.90;14.00;;;;;;;5.03;79.15;96171.11;106340;1274;1314463;-83
2022/02/16 08:42:47;;;;;;;19.60;13.10;;;;;;;5.06;78.86;96165.35;107118;1274;218949;-82
2022/02/16 08:45:16;;;;;;;21.90;14.50;;;;;;;5.08;78.86;96160.60;107291;1274;126027;-82
2022/02/16 08:47:45;;;;;;;24.50;14.50;;;;;;;5.09;78.72;96150.30;107348;1274;124147;-83
2022/02/16 08:50:14;;;;;;;22.50;13.70;;;;;;;5.09;78.74;96145.73;107252;1274;114007;-83
2022/02/16 08:52:42;;;;;;;20.60;13.70;;;;;;;5.10;78.52;96151.00;107290;1274;119545;-83
2022/02/16 08:55:11;;;;;;;19.70;12.40;;;;;;;5.12;78.61;96144.23;107443;1274;105124;-83
2022/02/16 08:57:42;;;;;;;22.90;13.00;;;;;;;5.16;78.53;96144.98;107317;1274;132328;-83
2022/02/16 09:00:12;;;;;;;18.30;11.40;;;;;;;5.19;78.33;96138.36;107270;1273;113534;-84
2022/02/16 09:02:41;;;;;;;16.10;10.30;;;;;;;5.26;78.44;96138.83;107666;1274;39767;-83
2022/02/16 09:05:10;;;;;;;18.30;10.50;;;;;;;5.37;78.24;96129.11;107757;1274;37321;-83
2022/02/16 09:07:39;;;;;;;19.10;12.00;;;;;;;5.39;78.00;96130.43;105558;1274;2544518;-83
2022/02/16 09:10:11;;;;;;;23.20;13.90;;;;;;;5.38;77.94;96122.45;107696;1274;148869;-83
2022/02/16 09:12:40;;;;;;;20.00;11.40;;;;;;;5.43;77.89;96119.83;107478;1274;216064;-83
2022/02/16 09:15:09;;;;;;;18.30;11.00;;;;;;;5.56;77.76;96117.93;106272;1274;2013024;-82
2022/02/16 09:17:37;;;;;;;18.20;11.00;;;;;;;5.70;77.17;96112.50;106209;1274;1583046;-83
2022/02/16 09:20:08;;;;;;;17.00;10.00;;;;;;;5.82;77.04;96108.58;107465;1274;216612;-83
2022/02/16 09:22:37;;;;;;;;;;;;;;;6.11;77.13;96105.50;107724;1274;110005;-82
2022/02/16 09:25:07;;;;;;;17.90;10.30;;;;;;;6.45;76.72;96105.67;107540;1274;148243;-83
2022/02/16 09:27:36;;;;;;;14.40;9.70;;;;;;;6.77;76.11;96105.34;107786;1274;42352;-83
2022/02/16 09:30:07;;;;;;;15.00;9.40;;;;;;;6.96;74.80;96099.88;106921;1274;1249732;-83
2022/02/16 09:32:36;;;;;;;14.90;9.40;;;;;;;7.19;74.26;96100.98;107744;1274;35394;-82
2022/02/16 09:35:07;;;;;;;15.60;9.80;;;;;;;7.44;73.80;96093.39;106701;1274;1305257;-84
2022/02/16 09:37:36;;;;;;;15.90;8.80;;;;;;;7.52;72.96;96091.67;107620;1274;141315;-83
2022/02/16 09:40:06;;;;;;;15.40;8.60;;;;;;;7.59;72.24;96090.84;107494;1274;182957;-83
2022/02/16 09:54:21;;;;;;;10.50;6.90;;;;;;;8.29;69.53;96080.98;104058;1306;558265;-84
2022/02/16 09:56:52;;;;;;;11.50;6.90;;;;;;;8.37;68.63;96073.96;107291;1270;206494;-84
2022/02/16 09:59:23;;;;;;;9.90;6.30;;;;;;;8.35;68.36;96074.82;107602;1268;120331;-84
2022/02/16 10:02:01;;;;;;;11.40;6.70;;;;;;;8.45;68.81;96077.38;107693;1268;96432;-83
2022/02/16 10:04:34;;;;;;;13.00;7.10;;;;;;;8.60;68.69;96074.33;107649;1267;131937;-84
2022/02/16 10:07:23;;;;;;;12.30;8.10;;;;;;;8.69;68.72;96070.39;107552;1268;112913;-84
2022/02/16 10:09:55;;;;;;;12.50;7.90;;;;;;;8.80;67.41;96065.05;108096;1268;34639;-83
2022/02/16 10:12:33;;;;;;;13.50;7.90;;;;;;;8.51;66.33;96064.91;108016;1268;128461;-84
2022/02/16 10:15:10;;;;;;;13.50;8.60;;;;;;;8.28;66.82;96068.55;107885;1268;147651;-84
2022/02/16 10:17:42;;;;;;;15.20;9.20;;;;;;;8.35;67.15;96067.05;107941;1268;127516;-84
2022/02/16 10:20:22;;;;;;;16.20;9.90;;;;;;;8.42;67.48;96057.01;107926;1270;124070;-84
2022/02/16 10:22:56;;;;;;;14.20;8.80;;;;;;;8.47;67.62;96055.80;107820;1268;223634;-84
2022/02/16 10:25:29;;;;;;;14.70;8.50;;;;;;;8.45;66.84;96051.06;107692;1268;111246;-83
2022/02/16 10:28:12;;;;;;;15.30;8.90;;;;;;;8.36;66.62;96044.06;108020;1268;102955;-83
2022/02/16 10:31:00;;;;;;;13.00;8.10;;;;;;;8.22;67.01;96038.49;108014;1270;33169;-83
2022/02/16 10:33:34;;;;;;;15.50;8.70;;;;;;;8.17;66.86;96032.69;107894;1268;102594;-83
2022/02/16 10:36:08;;;;;;;14.90;9.30;;;;;;;8.05;66.85;96031.82;108050;1268;34861;-83
2022/02/16 10:41:43;;;;;;;13.40;7.80;;;;;;;7.99;66.92;96020.19;104157;1309;545568;-84
2022/02/16 10:44:23;;;;;;;13.10;8.80;;;;;;;7.88;66.53;96022.33;107399;1270;222103;-85
2022/02/16 10:47:03;;;;;;;14.80;9.20;;;;;;;7.73;66.90;96022.21;107326;1271;130524;-83
2022/02/16 10:49:36;;;;;;;15.00;10.10;;;;;;;7.73;67.12;96008.66;107526;1270;112224;-84
2022/02/16 10:52:12;;;;;;;16.40;9.30;;;;;;;7.70;67.09;96007.41;107449;1271;119665;-84
2022/02/16 10:54:54;;;;;;;15.50;9.10;;;;;;;7.65;67.04;96003.02;107345;1268;155185;-84
2022/02/16 10:57:25;;;;;;;14.00;8.40;;;;;;;7.70;67.17;95996.60;108163;1268;33409;-83
2022/02/16 10:59:58;;;;;;;13.70;8.40;;;;;;;7.70;66.86;95989.20;108123;1268;33237;-84
2022/02/16 11:02:30;;;;;;;14.20;8.20;;;;;;;7.67;67.25;95982.70;107600;1268;186048;-84
2022/02/16 11:05:02;;;;;;;11.80;8.40;;;;;;;7.64;66.88;95976.87;108038;1268;120315;-84
2022/02/16 11:07:35;;;;;;;13.70;7.70;;;;;;;7.61;67.14;95975.09;107593;1268;157028;-84
2022/02/16 11:10:08;;;;;;;12.20;8.20;;;;;;;7.54;66.89;95970.12;107498;1268;166815;-84
2022/02/16 11:12:40;;;;;;;10.90;7.30;;;;;;;7.58;67.05;95962.42;107617;1268;149918;-84
2022/02/16 11:15:12;;;;;;;11.80;7.40;;;;;;;7.57;66.76;95957.70;107782;1268;111939;-84
2022/02/16 11:17:44;;;;;;;13.20;7.30;;;;;;;7.57;67.19;95949.77;107591;1268;163904;-84
2022/02/16 11:20:24;;;;;;;11.90;7.00;;;;;;;7.64;66.89;95943.36;107694;1267;121027;-84
2022/02/16 11:22:56;;;;;;;;;;;;;;;7.77;66.69;95942.05;107728;1268;137295;-84
2022/02/16 11:25:34;;;;;;;11.10;6.00;;;;;;;7.84;66.63;95936.92;107708;1267;117888;-83
2022/02/16 11:28:11;;;;;;;9.30;5.70;;;;;;;7.98;66.58;95930.73;107723;1267;121258;-84
2022/02/16 11:30:45;;;;;;;10.00;6.40;;;;;;;8.02;66.10;95921.49;107616;1266;159032;-84
2022/02/16 11:33:26;;;;;;;11.10;5.90;;;;;;;7.99;65.97;95917.77;108113;1267;55615;-84
2022/02/16 11:35:59;;;;;;;7.90;4.30;;;;;;;8.04;65.97;95915.84;107871;1266;193346;-83
2022/02/16 11:38:44;;;;;;;7.50;4.90;;;;;;;8.24;65.45;95895.36;108195;1267;37958;-83